sensor_id;sensor_type;location;lat;lon;timestamp;P1;durP1;ratioP1;P2;durP2;ratioP2
73900;SDS011;62235;52.160;7.526;2022-11-15T00:00:31;19.63;;;10.90;;
73900;SDS011;62235;52.160;7.526;2022-11-15T00:02:57;17.23;;;9.00;;
73900;SDS011;62235;52.160;7.526;2022-11-15T00:05:22;20.05;;;10.68;;
73900;SDS011;62235;52.160;7.526;2022-11-15T00:07:47;17.13;;;9.77;;
73900;SDS011;62235;52.160;7.526;2022-11-15T00:10:13;17.67;;;9.47;;
73900;SDS011;62235;52.160;7.526;2022-11-15T00:12:38;17.92;;;9.25;;
73900;SDS011;62235;52.160;7.526;2022-11-15T00:15:03;16.77;;;9.23;;
73900;SDS011;62235;52.160;7.526;2022-11-15T00:17:29;20.80;;;9.82;;
73900;SDS011;62235;52.160;7.526;2022-11-15T00:19:55;16.48;;;7.97;;
73900;SDS011;62235;52.160;7.526;2022-11-15T00:22:20;16.25;;;8.93;;
73900;SDS011;62235;52.160;7.526;2022-11-15T00:24:45;15.80;;;8.90;;
73900;SDS011;62235;52.160;7.526;2022-11-15T00:27:11;18.80;;;8.67;;
73900;SDS011;62235;52.160;7.526;2022-11-15T00:29:36;19.88;;;10.02;;
73900;SDS011;62235;52.160;7.526;2022-11-15T00:32:03;20.80;;;11.40;;
73900;SDS011;62235;52.160;7.526;2022-11-15T00:34:29;18.23;;;9.40;;
73900;SDS011;62235;52.160;7.526;2022-11-15T00:36:54;15.20;;;8.07;;
73900;SDS011;62235;52.160;7.526;2022-11-15T00:39:19;17.10;;;9.87;;
73900;SDS011;62235;52.160;7.526;2022-11-15T00:41:45;17.13;;;9.60;;
73900;SDS011;62235;52.160;7.526;2022-11-15T00:44:10;17.90;;;8.97;;
73900;SDS011;62235;52.160;7.526;2022-11-15T00:46:35;21.40;;;9.57;;
73900;SDS011;62235;52.160;7.526;2022-11-15T00:49:01;17.13;;;8.80;;
73900;SDS011;62235;52.160;7.526;2022-11-15T00:51:26;15.23;;;8.37;;
73900;SDS011;62235;52.160;7.526;2022-11-15T00:53:51;15.13;;;7.93;;
73900;SDS011;62235;52.160;7.526;2022-11-15T00:56:17;17.67;;;9.37;;
73900;SDS011;62235;52.160;7.526;2022-11-15T00:58:42;21.00;;;9.43;;
73900;SDS011;62235;52.160;7.526;2022-11-15T01:01:08;15.70;;;8.27;;
73900;SDS011;62235;52.160;7.526;2022-11-15T01:03:36;16.30;;;8.20;;
73900;SDS011;62235;52.160;7.526;2022-11-15T01:06:02;14.40;;;7.60;;
73900;SDS011;62235;52.160;7.526;2022-11-15T01:08:27;14.18;;;7.47;;
73900;SDS011;62235;52.160;7.526;2022-11-15T01:10:53;14.83;;;7.83;;
73900;SDS011;62235;52.160;7.526;2022-11-15T01:13:18;15.27;;;7.93;;
73900;SDS011;62235;52.160;7.526;2022-11-15T01:15:43;14.13;;;7.47;;
73900;SDS011;62235;52.160;7.526;2022-11-15T01:18:09;11.95;;;7.32;;
73900;SDS011;62235;52.160;7.526;2022-11-15T01:20:38;13.98;;;7.95;;
73900;SDS011;62235;52.160;7.526;2022-11-15T01:23:04;16.05;;;7.85;;
73900;SDS011;62235;52.160;7.526;2022-11-15T01:25:29;13.33;;;7.10;;
73900;SDS011;62235;52.160;7.526;2022-11-15T01:27:55;13.87;;;7.23;;
73900;SDS011;62235;52.160;7.526;2022-11-15T01:30:20;13.10;;;7.10;;
73900;SDS011;62235;52.160;7.526;2022-11-15T01:32:45;14.00;;;7.03;;
73900;SDS011;62235;52.160;7.526;2022-11-15T01:35:10;12.83;;;7.00;;
73900;SDS011;62235;52.160;7.526;2022-11-15T01:37:36;14.70;;;6.73;;
73900;SDS011;62235;52.160;7.526;2022-11-15T01:40:01;13.35;;;7.97;;
73900;SDS011;62235;52.160;7.526;2022-11-15T01:42:28;15.98;;;7.45;;
73900;SDS011;62235;52.160;7.526;2022-11-15T01:44:53;15.90;;;7.97;;
73900;SDS011;62235;52.160;7.526;2022-11-15T01:52:26;11.82;;;6.70;;
73900;SDS011;62235;52.160;7.526;2022-11-15T01:54:55;13.02;;;7.22;;
73900;SDS011;62235;52.160;7.526;2022-11-15T01:57:23;14.27;;;7.85;;
73900;SDS011;62235;52.160;7.526;2022-11-15T01:59:49;12.07;;;7.10;;
73900;SDS011;62235;52.160;7.526;2022-11-15T02:02:14;13.98;;;8.57;;
73900;SDS011;62235;52.160;7.526;2022-11-15T02:04:41;12.93;;;7.43;;
73900;SDS011;62235;52.160;7.526;2022-11-15T02:07:08;14.25;;;7.72;;
73900;SDS011;62235;52.160;7.526;2022-11-15T02:09:35;12.55;;;6.25;;
73900;SDS011;62235;52.160;7.526;2022-11-15T02:12:01;17.05;;;8.05;;
73900;SDS011;62235;52.160;7.526;2022-11-15T02:14:27;9.13;;;5.43;;
73900;SDS011;62235;52.160;7.526;2022-11-15T02:19:46;13.43;;;7.50;;
73900;SDS011;62235;52.160;7.526;2022-11-15T02:22:37;13.60;;;6.90;;
73900;SDS011;62235;52.160;7.526;2022-11-15T02:28:30;15.65;;;7.07;;
73900;SDS011;62235;52.160;7.526;2022-11-15T02:31:28;12.68;;;7.30;;
73900;SDS011;62235;52.160;7.526;2022-11-15T02:34:14;12.93;;;6.78;;
73900;SDS011;62235;52.160;7.526;2022-11-15T02:37:28;14.27;;;6.43;;
73900;SDS011;62235;52.160;7.526;2022-11-15T02:40:11;13.10;;;6.97;;
73900;SDS011;62235;52.160;7.526;2022-11-15T02:42:45;12.18;;;6.80;;
73900;SDS011;62235;52.160;7.526;2022-11-15T02:45:39;14.07;;;7.95;;
73900;SDS011;62235;52.160;7.526;2022-11-15T02:48:06;13.73;;;7.45;;
73900;SDS011;62235;52.160;7.526;2022-11-15T02:50:32;13.32;;;7.38;;
73900;SDS011;62235;52.160;7.526;2022-11-15T02:52:58;12.05;;;6.25;;
73900;SDS011;62235;52.160;7.526;2022-11-15T02:58:07;11.70;;;6.68;;
73900;SDS011;62235;52.160;7.526;2022-11-15T03:00:45;11.43;;;6.47;;
73900;SDS011;62235;52.160;7.526;2022-11-15T03:03:21;14.05;;;6.32;;
73900;SDS011;62235;52.160;7.526;2022-11-15T03:05:52;13.75;;;7.38;;
73900;SDS011;62235;52.160;7.526;2022-11-15T03:13:36;13.25;;;7.40;;
73900;SDS011;62235;52.160;7.526;2022-11-15T03:16:09;12.70;;;6.72;;
73900;SDS011;62235;52.160;7.526;2022-11-15T03:18:38;11.82;;;6.72;;
73900;SDS011;62235;52.160;7.526;2022-11-15T03:21:08;14.43;;;7.65;;
73900;SDS011;62235;52.160;7.526;2022-11-15T03:23:34;13.07;;;7.45;;
73900;SDS011;62235;52.160;7.526;2022-11-15T03:26:01;12.77;;;7.47;;
73900;SDS011;62235;52.160;7.526;2022-11-15T03:28:32;14.55;;;7.93;;
73900;SDS011;62235;52.160;7.526;2022-11-15T03:31:00;18.95;;;7.13;;
73900;SDS011;62235;52.160;7.526;2022-11-15T03:33:47;11.70;;;6.68;;
73900;SDS011;62235;52.160;7.526;2022-11-15T03:36:13;12.32;;;7.03;;
73900;SDS011;62235;52.160;7.526;2022-11-15T03:38:40;14.27;;;7.65;;
73900;SDS011;62235;52.160;7.526;2022-11-15T03:41:08;12.98;;;6.90;;
73900;SDS011;62235;52.160;7.526;2022-11-15T03:43:43;13.70;;;6.88;;
73900;SDS011;62235;52.160;7.526;2022-11-15T03:46:26;13.85;;;7.90;;
73900;SDS011;62235;52.160;7.526;2022-11-15T03:48:56;16.42;;;7.93;;
73900;SDS011;62235;52.160;7.526;2022-11-15T03:51:27;14.55;;;6.65;;
73900;SDS011;62235;52.160;7.526;2022-11-15T03:53:53;20.40;;;8.13;;
73900;SDS011;62235;52.160;7.526;2022-11-15T03:56:19;18.17;;;7.90;;
73900;SDS011;62235;52.160;7.526;2022-11-15T03:58:44;21.37;;;7.23;;
73900;SDS011;62235;52.160;7.526;2022-11-15T04:01:09;12.90;;;7.13;;
73900;SDS011;62235;52.160;7.526;2022-11-15T04:03:35;20.60;;;7.77;;
73900;SDS011;62235;52.160;7.526;2022-11-15T04:06:00;12.95;;;6.75;;
73900;SDS011;62235;52.160;7.526;2022-11-15T04:08:25;12.03;;;6.70;;
73900;SDS011;62235;52.160;7.526;2022-11-15T04:10:51;13.20;;;6.53;;
73900;SDS011;62235;52.160;7.526;2022-11-15T04:13:16;12.30;;;6.93;;
73900;SDS011;62235;52.160;7.526;2022-11-15T04:15:42;15.40;;;7.00;;
73900;SDS011;62235;52.160;7.526;2022-11-15T04:18:07;13.57;;;6.90;;
73900;SDS011;62235;52.160;7.526;2022-11-15T04:20:32;13.60;;;7.53;;
73900;SDS011;62235;52.160;7.526;2022-11-15T04:23:17;14.45;;;6.75;;
73900;SDS011;62235;52.160;7.526;2022-11-15T04:26:06;12.10;;;6.90;;
73900;SDS011;62235;52.160;7.526;2022-11-15T04:28:36;11.52;;;6.22;;
73900;SDS011;62235;52.160;7.526;2022-11-15T04:31:21;11.52;;;6.72;;
73900;SDS011;62235;52.160;7.526;2022-11-15T04:33:46;13.05;;;7.40;;
73900;SDS011;62235;52.160;7.526;2022-11-15T04:36:12;15.03;;;7.00;;
73900;SDS011;62235;52.160;7.526;2022-11-15T04:38:55;14.55;;;6.88;;
73900;SDS011;62235;52.160;7.526;2022-11-15T04:41:21;10.15;;;6.30;;
73900;SDS011;62235;52.160;7.526;2022-11-15T04:43:46;12.40;;;7.00;;
73900;SDS011;62235;52.160;7.526;2022-11-15T04:46:12;11.40;;;6.73;;
73900;SDS011;62235;52.160;7.526;2022-11-15T04:48:37;12.80;;;6.63;;
73900;SDS011;62235;52.160;7.526;2022-11-15T04:51:02;16.20;;;6.63;;
73900;SDS011;62235;52.160;7.526;2022-11-15T04:53:27;11.15;;;6.25;;
73900;SDS011;62235;52.160;7.526;2022-11-15T04:55:53;14.30;;;6.63;;
73900;SDS011;62235;52.160;7.526;2022-11-15T04:58:18;12.87;;;6.67;;
73900;SDS011;62235;52.160;7.526;2022-11-15T05:00:43;10.73;;;6.50;;
73900;SDS011;62235;52.160;7.526;2022-11-15T05:03:09;15.57;;;7.17;;
73900;SDS011;62235;52.160;7.526;2022-11-15T05:05:53;13.10;;;7.18;;
73900;SDS011;62235;52.160;7.526;2022-11-15T05:08:18;11.87;;;6.53;;
73900;SDS011;62235;52.160;7.526;2022-11-15T05:10:43;15.10;;;7.37;;
73900;SDS011;62235;52.160;7.526;2022-11-15T05:13:09;16.38;;;7.95;;
73900;SDS011;62235;52.160;7.526;2022-11-15T05:15:34;13.27;;;7.60;;
73900;SDS011;62235;52.160;7.526;2022-11-15T05:17:59;11.70;;;7.03;;
73900;SDS011;62235;52.160;7.526;2022-11-15T05:20:28;11.70;;;6.80;;
73900;SDS011;62235;52.160;7.526;2022-11-15T05:22:53;12.93;;;7.53;;
73900;SDS011;62235;52.160;7.526;2022-11-15T05:25:20;13.27;;;6.80;;
73900;SDS011;62235;52.160;7.526;2022-11-15T05:27:46;13.00;;;6.82;;
73900;SDS011;62235;52.160;7.526;2022-11-15T05:30:11;16.10;;;7.32;;
73900;SDS011;62235;52.160;7.526;2022-11-15T05:32:36;12.80;;;6.80;;
73900;SDS011;62235;52.160;7.526;2022-11-15T05:35:02;13.30;;;6.60;;
73900;SDS011;62235;52.160;7.526;2022-11-15T05:37:30;14.75;;;6.97;;
73900;SDS011;62235;52.160;7.526;2022-11-15T05:39:55;13.53;;;7.43;;
73900;SDS011;62235;52.160;7.526;2022-11-15T05:42:21;14.80;;;7.70;;
73900;SDS011;62235;52.160;7.526;2022-11-15T05:44:47;15.43;;;7.23;;
73900;SDS011;62235;52.160;7.526;2022-11-15T05:47:18;13.43;;;6.45;;
73900;SDS011;62235;52.160;7.526;2022-11-15T05:49:46;15.32;;;7.47;;
73900;SDS011;62235;52.160;7.526;2022-11-15T05:52:13;12.95;;;7.15;;
73900;SDS011;62235;52.160;7.526;2022-11-15T05:54:40;13.13;;;6.70;;
73900;SDS011;62235;52.160;7.526;2022-11-15T05:57:05;12.25;;;7.00;;
73900;SDS011;62235;52.160;7.526;2022-11-15T05:59:31;13.40;;;7.65;;
73900;SDS011;62235;52.160;7.526;2022-11-15T06:01:57;19.33;;;9.82;;
73900;SDS011;62235;52.160;7.526;2022-11-15T06:04:22;12.63;;;7.07;;
73900;SDS011;62235;52.160;7.526;2022-11-15T06:06:48;14.13;;;7.32;;
73900;SDS011;62235;52.160;7.526;2022-11-15T06:09:13;14.60;;;7.97;;
73900;SDS011;62235;52.160;7.526;2022-11-15T06:11:38;11.40;;;6.97;;
73900;SDS011;62235;52.160;7.526;2022-11-15T06:14:03;16.70;;;7.60;;
73900;SDS011;62235;52.160;7.526;2022-11-15T06:16:29;13.57;;;7.60;;
73900;SDS011;62235;52.160;7.526;2022-11-15T06:18:54;12.80;;;7.80;;
73900;SDS011;62235;52.160;7.526;2022-11-15T06:21:20;12.90;;;7.77;;
73900;SDS011;62235;52.160;7.526;2022-11-15T06:23:45;14.77;;;7.20;;
73900;SDS011;62235;52.160;7.526;2022-11-15T06:26:10;13.03;;;7.20;;
73900;SDS011;62235;52.160;7.526;2022-11-15T06:28:35;14.27;;;7.50;;
73900;SDS011;62235;52.160;7.526;2022-11-15T06:31:05;12.50;;;6.37;;
73900;SDS011;62235;52.160;7.526;2022-11-15T06:33:31;13.90;;;6.93;;
73900;SDS011;62235;52.160;7.526;2022-11-15T06:36:03;15.20;;;8.18;;
73900;SDS011;62235;52.160;7.526;2022-11-15T06:38:30;16.45;;;8.88;;
73900;SDS011;62235;52.160;7.526;2022-11-15T06:41:00;11.27;;;6.83;;
73900;SDS011;62235;52.160;7.526;2022-11-15T06:43:29;14.88;;;7.28;;
73900;SDS011;62235;52.160;7.526;2022-11-15T06:45:54;13.03;;;6.97;;
73900;SDS011;62235;52.160;7.526;2022-11-15T06:48:19;15.73;;;6.57;;
73900;SDS011;62235;52.160;7.526;2022-11-15T06:50:54;14.67;;;7.17;;
73900;SDS011;62235;52.160;7.526;2022-11-15T06:53:20;13.00;;;7.55;;
73900;SDS011;62235;52.160;7.526;2022-11-15T06:55:45;12.82;;;7.50;;
73900;SDS011;62235;52.160;7.526;2022-11-15T06:58:11;17.13;;;7.57;;
73900;SDS011;62235;52.160;7.526;2022-11-15T07:00:36;16.43;;;7.57;;
73900;SDS011;62235;52.160;7.526;2022-11-15T07:03:02;23.05;;;10.05;;
73900;SDS011;62235;52.160;7.526;2022-11-15T07:05:27;27.48;;;12.00;;
73900;SDS011;62235;52.160;7.526;2022-11-15T07:07:53;30.52;;;10.63;;
73900;SDS011;62235;52.160;7.526;2022-11-15T07:10:20;26.83;;;10.15;;
73900;SDS011;62235;52.160;7.526;2022-11-15T07:12:47;18.20;;;8.32;;
73900;SDS011;62235;52.160;7.526;2022-11-15T07:15:13;24.02;;;8.48;;
73900;SDS011;62235;52.160;7.526;2022-11-15T07:17:39;21.13;;;9.10;;
73900;SDS011;62235;52.160;7.526;2022-11-15T07:20:05;17.27;;;8.87;;
73900;SDS011;62235;52.160;7.526;2022-11-15T07:22:30;18.55;;;9.13;;
73900;SDS011;62235;52.160;7.526;2022-11-15T07:24:56;15.97;;;7.97;;
73900;SDS011;62235;52.160;7.526;2022-11-15T07:27:21;14.63;;;7.80;;
73900;SDS011;62235;52.160;7.526;2022-11-15T07:29:46;14.57;;;8.00;;
73900;SDS011;62235;52.160;7.526;2022-11-15T07:32:11;16.27;;;7.60;;
73900;SDS011;62235;52.160;7.526;2022-11-15T07:34:37;13.63;;;7.13;;
73900;SDS011;62235;52.160;7.526;2022-11-15T07:37:02;17.63;;;8.43;;
73900;SDS011;62235;52.160;7.526;2022-11-15T07:39:27;14.80;;;7.90;;
73900;SDS011;62235;52.160;7.526;2022-11-15T07:41:53;15.87;;;7.57;;
73900;SDS011;62235;52.160;7.526;2022-11-15T07:44:38;13.88;;;7.10;;
73900;SDS011;62235;52.160;7.526;2022-11-15T07:47:03;15.13;;;6.53;;
73900;SDS011;62235;52.160;7.526;2022-11-15T07:49:29;11.80;;;7.17;;
73900;SDS011;62235;52.160;7.526;2022-11-15T07:51:54;14.00;;;7.17;;
73900;SDS011;62235;52.160;7.526;2022-11-15T07:54:19;13.57;;;7.43;;
73900;SDS011;62235;52.160;7.526;2022-11-15T07:56:44;13.90;;;6.90;;
73900;SDS011;62235;52.160;7.526;2022-11-15T07:59:10;12.67;;;7.30;;
73900;SDS011;62235;52.160;7.526;2022-11-15T08:01:35;13.83;;;6.93;;
73900;SDS011;62235;52.160;7.526;2022-11-15T08:04:00;12.10;;;7.63;;
73900;SDS011;62235;52.160;7.526;2022-11-15T08:06:26;11.43;;;6.60;;
73900;SDS011;62235;52.160;7.526;2022-11-15T08:08:51;16.77;;;8.00;;
73900;SDS011;62235;52.160;7.526;2022-11-15T08:11:16;15.23;;;8.50;;
73900;SDS011;62235;52.160;7.526;2022-11-15T08:13:41;16.17;;;7.63;;
73900;SDS011;62235;52.160;7.526;2022-11-15T08:16:07;14.68;;;8.50;;
73900;SDS011;62235;52.160;7.526;2022-11-15T08:18:33;15.65;;;8.00;;
73900;SDS011;62235;52.160;7.526;2022-11-15T08:20:59;16.02;;;8.68;;
73900;SDS011;62235;52.160;7.526;2022-11-15T08:23:25;14.05;;;7.82;;
73900;SDS011;62235;52.160;7.526;2022-11-15T08:25:50;16.77;;;9.05;;
73900;SDS011;62235;52.160;7.526;2022-11-15T08:28:16;12.43;;;7.47;;
73900;SDS011;62235;52.160;7.526;2022-11-15T08:30:42;12.43;;;6.25;;
73900;SDS011;62235;52.160;7.526;2022-11-15T08:33:11;12.20;;;7.40;;
73900;SDS011;62235;52.160;7.526;2022-11-15T08:35:38;13.95;;;7.45;;
73900;SDS011;62235;52.160;7.526;2022-11-15T08:38:03;11.60;;;6.32;;
73900;SDS011;62235;52.160;7.526;2022-11-15T08:40:29;11.10;;;6.80;;
73900;SDS011;62235;52.160;7.526;2022-11-15T08:42:54;11.30;;;6.90;;
73900;SDS011;62235;52.160;7.526;2022-11-15T08:45:19;12.02;;;6.82;;
73900;SDS011;62235;52.160;7.526;2022-11-15T08:47:45;10.32;;;6.07;;
73900;SDS011;62235;52.160;7.526;2022-11-15T08:50:10;11.10;;;5.70;;
73900;SDS011;62235;52.160;7.526;2022-11-15T08:52:36;10.30;;;6.07;;
73900;SDS011;62235;52.160;7.526;2022-11-15T08:55:01;10.20;;;6.20;;
73900;SDS011;62235;52.160;7.526;2022-11-15T08:57:28;9.70;;;5.90;;
73900;SDS011;62235;52.160;7.526;2022-11-15T08:59:55;9.38;;;6.07;;
73900;SDS011;62235;52.160;7.526;2022-11-15T09:02:20;10.77;;;6.43;;
73900;SDS011;62235;52.160;7.526;2022-11-15T09:04:45;9.15;;;5.50;;
73900;SDS011;62235;52.160;7.526;2022-11-15T09:07:11;12.10;;;7.27;;
73900;SDS011;62235;52.160;7.526;2022-11-15T09:09:36;7.47;;;5.07;;
73900;SDS011;62235;52.160;7.526;2022-11-15T09:12:02;8.88;;;5.28;;
73900;SDS011;62235;52.160;7.526;2022-11-15T09:14:28;7.85;;;5.10;;
73900;SDS011;62235;52.160;7.526;2022-11-15T09:16:53;8.43;;;5.13;;
73900;SDS011;62235;52.160;7.526;2022-11-15T09:19:18;8.57;;;5.10;;
73900;SDS011;62235;52.160;7.526;2022-11-15T09:21:44;5.93;;;4.53;;
73900;SDS011;62235;52.160;7.526;2022-11-15T09:24:09;5.90;;;3.90;;
73900;SDS011;62235;52.160;7.526;2022-11-15T09:26:34;6.70;;;3.90;;
73900;SDS011;62235;52.160;7.526;2022-11-15T09:29:00;4.67;;;3.33;;
73900;SDS011;62235;52.160;7.526;2022-11-15T09:31:26;5.40;;;3.90;;
73900;SDS011;62235;52.160;7.526;2022-11-15T09:33:51;6.28;;;4.00;;
73900;SDS011;62235;52.160;7.526;2022-11-15T09:36:17;6.37;;;3.37;;
73900;SDS011;62235;52.160;7.526;2022-11-15T09:38:42;7.03;;;3.77;;
73900;SDS011;62235;52.160;7.526;2022-11-15T09:43:58;4.65;;;2.90;;
73900;SDS011;62235;52.160;7.526;2022-11-15T09:49:20;3.17;;;2.50;;
73900;SDS011;62235;52.160;7.526;2022-11-15T09:51:47;4.97;;;2.53;;
73900;SDS011;62235;52.160;7.526;2022-11-15T09:54:18;3.67;;;2.15;;
73900;SDS011;62235;52.160;7.526;2022-11-15T09:56:57;6.13;;;2.30;;
73900;SDS011;62235;52.160;7.526;2022-11-15T09:59:46;5.55;;;2.17;;
73900;SDS011;62235;52.160;7.526;2022-11-15T10:05:21;2.95;;;2.03;;
73900;SDS011;62235;52.160;7.526;2022-11-15T10:07:57;2.75;;;1.55;;
73900;SDS011;62235;52.160;7.526;2022-11-15T10:10:29;3.78;;;2.10;;
73900;SDS011;62235;52.160;7.526;2022-11-15T10:15:21;2.10;;;1.90;;
73900;SDS011;62235;52.160;7.526;2022-11-15T10:20:28;3.03;;;1.80;;
73900;SDS011;62235;52.160;7.526;2022-11-15T10:23:01;4.93;;;1.85;;
73900;SDS011;62235;52.160;7.526;2022-11-15T10:25:32;3.03;;;1.65;;
73900;SDS011;62235;52.160;7.526;2022-11-15T10:28:09;1.50;;;1.02;;
73900;SDS011;62235;52.160;7.526;2022-11-15T10:30:39;2.38;;;1.02;;
73900;SDS011;62235;52.160;7.526;2022-11-15T10:36:36;1.55;;;0.90;;
73900;SDS011;62235;52.160;7.526;2022-11-15T10:46:32;2.90;;;1.77;;
73900;SDS011;62235;52.160;7.526;2022-11-15T10:49:18;7.05;;;1.60;;
73900;SDS011;62235;52.160;7.526;2022-11-15T10:51:49;1.55;;;0.90;;
73900;SDS011;62235;52.160;7.526;2022-11-15T10:54:22;1.38;;;0.75;;
73900;SDS011;62235;52.160;7.526;2022-11-15T10:56:53;1.38;;;0.60;;
73900;SDS011;62235;52.160;7.526;2022-11-15T10:59:24;1.63;;;0.73;;
73900;SDS011;62235;52.160;7.526;2022-11-15T11:01:51;0.93;;;0.60;;
73900;SDS011;62235;52.160;7.526;2022-11-15T11:04:17;1.50;;;0.80;;
73900;SDS011;62235;52.160;7.526;2022-11-15T11:06:50;2.85;;;0.80;;
73900;SDS011;62235;52.160;7.526;2022-11-15T11:11:54;2.50;;;0.90;;
73900;SDS011;62235;52.160;7.526;2022-11-15T11:14:24;2.47;;;0.80;;
73900;SDS011;62235;52.160;7.526;2022-11-15T11:19:48;2.13;;;0.70;;
73900;SDS011;62235;52.160;7.526;2022-11-15T11:22:20;1.48;;;0.93;;
73900;SDS011;62235;52.160;7.526;2022-11-15T11:25:02;2.03;;;0.90;;
73900;SDS011;62235;52.160;7.526;2022-11-15T11:39:11;4.07;;;1.33;;
73900;SDS011;62235;52.160;7.526;2022-11-15T11:42:07;3.17;;;1.20;;
73900;SDS011;62235;52.160;7.526;2022-11-15T11:44:42;10.48;;;1.60;;
73900;SDS011;62235;52.160;7.526;2022-11-15T11:47:24;2.20;;;1.10;;
73900;SDS011;62235;52.160;7.526;2022-11-15T11:49:58;4.35;;;1.25;;
73900;SDS011;62235;52.160;7.526;2022-11-15T11:55:29;2.90;;;1.65;;
73900;SDS011;62235;52.160;7.526;2022-11-15T12:01:11;1.42;;;0.98;;
73900;SDS011;62235;52.160;7.526;2022-11-15T12:06:31;3.67;;;1.17;;
73900;SDS011;62235;52.160;7.526;2022-11-15T12:09:04;3.40;;;1.17;;
73900;SDS011;62235;52.160;7.526;2022-11-15T12:17:31;2.55;;;0.88;;
73900;SDS011;62235;52.160;7.526;2022-11-15T12:20:04;3.28;;;0.73;;
73900;SDS011;62235;52.160;7.526;2022-11-15T12:22:43;1.23;;;0.85;;
73900;SDS011;62235;52.160;7.526;2022-11-15T12:25:20;2.80;;;1.40;;
73900;SDS011;62235;52.160;7.526;2022-11-15T12:27:55;2.25;;;0.80;;
73900;SDS011;62235;52.160;7.526;2022-11-15T12:30:25;1.15;;;0.60;;
73900;SDS011;62235;52.160;7.526;2022-11-15T12:32:58;2.70;;;0.70;;
73900;SDS011;62235;52.160;7.526;2022-11-15T12:35:26;2.08;;;0.88;;
73900;SDS011;62235;52.160;7.526;2022-11-15T12:38:00;1.75;;;0.80;;
73900;SDS011;62235;52.160;7.526;2022-11-15T12:40:33;1.60;;;0.98;;
73900;SDS011;62235;52.160;7.526;2022-11-15T12:43:00;2.33;;;0.90;;
73900;SDS011;62235;52.160;7.526;2022-11-15T12:45:30;3.40;;;0.90;;
73900;SDS011;62235;52.160;7.526;2022-11-15T12:51:00;3.58;;;2.28;;
73900;SDS011;62235;52.160;7.526;2022-11-15T12:56:09;1.83;;;1.05;;
73900;SDS011;62235;52.160;7.526;2022-11-15T13:06:41;2.30;;;0.80;;
73900;SDS011;62235;52.160;7.526;2022-11-15T13:11:52;1.52;;;0.70;;
73900;SDS011;62235;52.160;7.526;2022-11-15T13:17:02;2.20;;;0.73;;
73900;SDS011;62235;52.160;7.526;2022-11-15T13:19:47;3.63;;;1.17;;
73900;SDS011;62235;52.160;7.526;2022-11-15T13:22:14;0.80;;;0.70;;
73900;SDS011;62235;52.160;7.526;2022-11-15T13:25:02;1.83;;;1.00;;
73900;SDS011;62235;52.160;7.526;2022-11-15T13:27:27;2.95;;;1.10;;
73900;SDS011;62235;52.160;7.526;2022-11-15T13:29:53;1.75;;;0.80;;
73900;SDS011;62235;52.160;7.526;2022-11-15T13:32:18;1.90;;;1.00;;
73900;SDS011;62235;52.160;7.526;2022-11-15T13:34:48;2.85;;;0.82;;
73900;SDS011;62235;52.160;7.526;2022-11-15T13:39:47;1.92;;;1.05;;
73900;SDS011;62235;52.160;7.526;2022-11-15T13:42:17;2.42;;;0.70;;
73900;SDS011;62235;52.160;7.526;2022-11-15T13:44:57;3.05;;;1.40;;
73900;SDS011;62235;52.160;7.526;2022-11-15T13:47:26;1.65;;;0.90;;
73900;SDS011;62235;52.160;7.526;2022-11-15T13:49:53;2.05;;;1.05;;
73900;SDS011;62235;52.160;7.526;2022-11-15T13:52:21;2.55;;;1.00;;
73900;SDS011;62235;52.160;7.526;2022-11-15T13:55:21;1.50;;;0.80;;
73900;SDS011;62235;52.160;7.526;2022-11-15T13:57:44;3.33;;;0.73;;
73900;SDS011;62235;52.160;7.526;2022-11-15T14:02:51;3.05;;;1.05;;
73900;SDS011;62235;52.160;7.526;2022-11-15T14:05:19;1.20;;;0.80;;
73900;SDS011;62235;52.160;7.526;2022-11-15T14:07:52;2.28;;;0.80;;
73900;SDS011;62235;52.160;7.526;2022-11-15T14:10:30;2.03;;;1.05;;
73900;SDS011;62235;52.160;7.526;2022-11-15T14:13:00;1.65;;;0.93;;
73900;SDS011;62235;52.160;7.526;2022-11-15T14:17:51;3.90;;;0.83;;
73900;SDS011;62235;52.160;7.526;2022-11-15T14:22:59;3.70;;;1.40;;
73900;SDS011;62235;52.160;7.526;2022-11-15T14:25:36;4.20;;;1.67;;
73900;SDS011;62235;52.160;7.526;2022-11-15T14:30:45;2.72;;;2.00;;
73900;SDS011;62235;52.160;7.526;2022-11-15T14:35:54;6.10;;;3.70;;
73900;SDS011;62235;52.160;7.526;2022-11-15T14:38:21;4.07;;;2.47;;
73900;SDS011;62235;52.160;7.526;2022-11-15T14:40:46;5.88;;;1.98;;
73900;SDS011;62235;52.160;7.526;2022-11-15T14:43:12;6.63;;;4.30;;
73900;SDS011;62235;52.160;7.526;2022-11-15T14:45:38;3.78;;;1.92;;
73900;SDS011;62235;52.160;7.526;2022-11-15T14:48:03;4.53;;;2.10;;
73900;SDS011;62235;52.160;7.526;2022-11-15T14:50:29;5.38;;;2.65;;
73900;SDS011;62235;52.160;7.526;2022-11-15T14:52:54;6.03;;;2.00;;
73900;SDS011;62235;52.160;7.526;2022-11-15T14:55:21;7.03;;;2.30;;
73900;SDS011;62235;52.160;7.526;2022-11-15T14:57:50;4.15;;;2.40;;
73900;SDS011;62235;52.160;7.526;2022-11-15T15:00:16;3.38;;;1.80;;
73900;SDS011;62235;52.160;7.526;2022-11-15T15:02:42;4.63;;;1.70;;
73900;SDS011;62235;52.160;7.526;2022-11-15T15:07:41;3.60;;;1.98;;
73900;SDS011;62235;52.160;7.526;2022-11-15T15:10:06;3.20;;;1.63;;
73900;SDS011;62235;52.160;7.526;2022-11-15T15:12:32;3.08;;;1.70;;
73900;SDS011;62235;52.160;7.526;2022-11-15T15:14:58;3.92;;;1.70;;
73900;SDS011;62235;52.160;7.526;2022-11-15T15:17:23;2.67;;;1.70;;
73900;SDS011;62235;52.160;7.526;2022-11-15T15:19:48;4.20;;;2.00;;
73900;SDS011;62235;52.160;7.526;2022-11-15T15:22:15;11.53;;;2.97;;
73900;SDS011;62235;52.160;7.526;2022-11-15T15:24:42;7.43;;;2.03;;
73900;SDS011;62235;52.160;7.526;2022-11-15T15:27:08;6.70;;;1.83;;
73900;SDS011;62235;52.160;7.526;2022-11-15T15:29:34;5.03;;;1.85;;
73900;SDS011;62235;52.160;7.526;2022-11-15T15:31:59;5.50;;;1.38;;
73900;SDS011;62235;52.160;7.526;2022-11-15T15:34:24;2.30;;;1.23;;
73900;SDS011;62235;52.160;7.526;2022-11-15T15:37:05;5.30;;;2.53;;
73900;SDS011;62235;52.160;7.526;2022-11-15T15:39:37;4.68;;;1.65;;
73900;SDS011;62235;52.160;7.526;2022-11-15T15:42:03;3.70;;;1.85;;
73900;SDS011;62235;52.160;7.526;2022-11-15T15:44:28;5.40;;;1.55;;
73900;SDS011;62235;52.160;7.526;2022-11-15T15:46:54;6.67;;;1.50;;
73900;SDS011;62235;52.160;7.526;2022-11-15T15:49:19;5.77;;;2.50;;
73900;SDS011;62235;52.160;7.526;2022-11-15T15:51:44;7.72;;;1.98;;
73900;SDS011;62235;52.160;7.526;2022-11-15T15:54:10;5.70;;;2.67;;
73900;SDS011;62235;52.160;7.526;2022-11-15T15:56:35;5.00;;;2.35;;
73900;SDS011;62235;52.160;7.526;2022-11-15T15:59:00;6.23;;;2.40;;
73900;SDS011;62235;52.160;7.526;2022-11-15T16:01:26;3.27;;;2.00;;
73900;SDS011;62235;52.160;7.526;2022-11-15T16:03:51;16.53;;;6.60;;
73900;SDS011;62235;52.160;7.526;2022-11-15T16:06:32;12.20;;;6.83;;
73900;SDS011;62235;52.160;7.526;2022-11-15T16:09:03;6.00;;;2.55;;
73900;SDS011;62235;52.160;7.526;2022-11-15T16:11:29;16.85;;;7.22;;
73900;SDS011;62235;52.160;7.526;2022-11-15T16:13:57;14.98;;;7.35;;
73900;SDS011;62235;52.160;7.526;2022-11-15T16:16:22;3.93;;;2.20;;
73900;SDS011;62235;52.160;7.526;2022-11-15T16:18:48;4.82;;;1.58;;
73900;SDS011;62235;52.160;7.526;2022-11-15T16:21:13;4.30;;;2.50;;
73900;SDS011;62235;52.160;7.526;2022-11-15T16:23:39;4.47;;;2.10;;
73900;SDS011;62235;52.160;7.526;2022-11-15T16:26:25;4.07;;;2.20;;
73900;SDS011;62235;52.160;7.526;2022-11-15T16:28:50;3.10;;;1.60;;
73900;SDS011;62235;52.160;7.526;2022-11-15T16:31:16;7.05;;;2.88;;
73900;SDS011;62235;52.160;7.526;2022-11-15T16:33:43;5.82;;;3.30;;
73900;SDS011;62235;52.160;7.526;2022-11-15T16:38:50;4.82;;;2.75;;
73900;SDS011;62235;52.160;7.526;2022-11-15T16:41:16;4.18;;;2.25;;